createdAt,value
2023-03-12T00:01:32.877Z,0.39
2023-03-12T00:03:32.012Z,0.39
2023-03-12T00:05:32.014Z,411.29
2023-03-12T00:07:41.364Z,0.39
2023-03-12T00:09:32.082Z,0.39
2023-03-12T00:11:32.646Z,0.39
2023-03-12T00:13:31.749Z,0.4
2023-03-12T00:15:32.670Z,0.4
2023-03-12T00:17:32.065Z,419.62
2023-03-12T00:19:32.291Z,411.29
2023-03-12T00:21:31.808Z,411.29
2023-03-12T00:23:32.435Z,411.29
2023-03-12T00:25:31.849Z,411.29
2023-03-12T00:27:32.182Z,411.29
2023-03-12T00:29:31.921Z,0.39
2023-03-12T00:31:32.700Z,0.39
2023-03-12T00:33:31.931Z,0.39
2023-03-12T00:35:32.066Z,0.39
2023-03-12T00:37:31.735Z,0.39
2023-03-12T00:39:32.053Z,0.39
2023-03-12T00:41:31.515Z,411.29
2023-03-12T00:43:31.881Z,0.38
2023-03-12T00:45:32.480Z,0.38
2023-03-12T00:47:32.919Z,0.38
2023-03-12T00:49:31.725Z,0.38
2023-03-12T00:51:32.325Z,0.38
2023-03-12T00:53:32.026Z,394.98
2023-03-12T00:55:32.325Z,0.38
2023-03-12T00:57:31.714Z,0.38
2023-03-12T00:59:32.189Z,394.98
2023-03-12T01:01:37.780Z,394.98
2023-03-12T01:03:32.078Z,394.98
2023-03-12T01:05:35.106Z,394.98
2023-03-12T01:07:31.964Z,394.98
2023-03-12T01:09:32.361Z,394.98
2023-03-12T01:11:31.721Z,0.37
2023-03-12T01:13:31.996Z,394.98
2023-03-12T01:15:31.663Z,394.98
2023-03-12T01:17:32.585Z,0.37
2023-03-12T01:19:32.418Z,0.37
2023-03-12T01:21:31.929Z,0.37
2023-03-12T01:23:32.494Z,0.37
2023-03-12T01:25:31.540Z,0.37
2023-03-12T01:27:31.787Z,0.37
2023-03-12T01:29:32.579Z,387
2023-03-12T01:31:32.229Z,387
2023-03-12T01:33:31.693Z,387
2023-03-12T01:35:32.070Z,0.36
2023-03-12T01:37:32.942Z,0.36
2023-03-12T01:39:32.136Z,0.36
2023-03-12T01:41:32.506Z,0.36
2023-03-12T01:43:31.821Z,0.36
2023-03-12T01:45:32.276Z,0.36
2023-03-12T01:47:32.023Z,0.35
2023-03-12T01:49:31.962Z,371.38
2023-03-12T01:51:31.719Z,371.38
2023-03-12T01:53:32.128Z,0.35
2023-03-12T01:55:31.261Z,371.38
2023-03-12T01:57:32.068Z,371.38
2023-03-12T01:59:31.629Z,371.38
2023-03-12T02:01:37.314Z,0.35
2023-03-12T02:03:31.684Z,0.35
2023-03-12T02:05:32.455Z,356.22
2023-03-12T02:07:31.574Z,0.34
2023-03-12T02:09:32.093Z,0.34
2023-03-12T02:11:31.560Z,356.22
2023-03-12T02:13:32.104Z,356.22
2023-03-12T02:15:31.407Z,356.22
2023-03-12T02:17:32.404Z,0.34
2023-03-12T02:19:31.579Z,0.34
2023-03-12T02:21:32.179Z,0.34
2023-03-12T02:23:31.546Z,0.34
2023-03-12T02:25:32.088Z,356.22
2023-03-12T02:27:31.393Z,356.22
2023-03-12T02:29:32.117Z,0.34
2023-03-12T02:31:31.768Z,0.34
2023-03-12T02:33:32.393Z,0.34
2023-03-12T02:35:31.536Z,0.33
2023-03-12T02:37:32.323Z,0.34
2023-03-12T02:39:31.543Z,0.34
2023-03-12T02:41:32.131Z,348.81
2023-03-12T02:43:31.478Z,0.33
2023-03-12T02:45:32.275Z,0.33
2023-03-12T02:47:32.974Z,0.34
2023-03-12T02:49:32.147Z,356.22
2023-03-12T02:51:31.848Z,356.22
2023-03-12T02:53:32.162Z,0.33
2023-03-12T02:55:31.454Z,348.81
2023-03-12T02:57:32.197Z,348.81
2023-03-12T02:59:31.851Z,0.33
2023-03-12T03:01:37.166Z,0.33
2023-03-12T03:03:32.340Z,0.33
2023-03-12T03:05:31.951Z,334.32
2023-03-12T03:07:32.268Z,0.32
2023-03-12T03:09:31.696Z,0.32
2023-03-12T03:11:32.137Z,0.32
2023-03-12T03:13:31.657Z,0.32
2023-03-12T03:15:32.430Z,0.32
2023-03-12T03:17:31.875Z,334.32
2023-03-12T03:19:32.328Z,0.32
2023-03-12T03:21:32.024Z,0.32
2023-03-12T03:23:32.750Z,0.32
2023-03-12T03:25:31.788Z,0.32
2023-03-12T03:27:31.519Z,0.32
2023-03-12T03:29:32.228Z,0.32
2023-03-12T03:31:31.881Z,334.32
2023-03-12T03:33:32.232Z,334.32
2023-03-12T03:35:31.617Z,334.32
2023-03-12T03:37:32.381Z,0.32
2023-03-12T03:39:31.709Z,0.32
2023-03-12T03:41:32.131Z,327.23
2023-03-12T03:43:31.723Z,0.3
2023-03-12T03:45:32.360Z,0.3
2023-03-12T03:47:31.965Z,0.3
2023-03-12T03:49:32.012Z,0.3
2023-03-12T03:51:31.896Z,0.3
2023-03-12T03:53:32.430Z,0.3
2023-03-12T03:55:31.731Z,0.3
2023-03-12T03:57:32.141Z,0.3
2023-03-12T03:59:31.813Z,0.29
2023-03-12T04:01:40.687Z,313.38
2023-03-12T04:03:31.755Z,313.38
2023-03-12T04:05:32.088Z,0.29
2023-03-12T04:07:31.706Z,0.3
2023-03-12T04:09:32.202Z,0.3
2023-03-12T04:11:31.608Z,306.61
2023-03-12T04:13:32.277Z,306.61
2023-03-12T04:15:31.821Z,306.61
2023-03-12T04:17:32.557Z,0.29
2023-03-12T04:19:32.135Z,0.29
2023-03-12T04:21:31.596Z,0.29
2023-03-12T04:23:32.182Z,313.38
2023-03-12T04:25:32.221Z,0.3
2023-03-12T04:27:31.742Z,0.3
2023-03-12T04:29:32.495Z,0.3
2023-03-12T04:31:32.372Z,0.3
2023-03-12T04:33:31.968Z,0.3
2023-03-12T04:35:33.732Z,0.3
2023-03-12T04:37:31.864Z,0.3
2023-03-12T04:39:32.153Z,0.3
2023-03-12T04:41:31.587Z,0.3
2023-03-12T04:43:32.534Z,0.3
2023-03-12T04:45:32.173Z,0.3
2023-03-12T04:47:32.876Z,0.3
2023-03-12T04:49:31.801Z,0.3
2023-03-12T04:51:32.596Z,0.3
2023-03-12T04:53:32.455Z,0.3
2023-03-12T04:55:33.268Z,0.3
2023-03-12T04:57:32.084Z,0.3
2023-03-12T04:59:31.663Z,0.3
2023-03-12T05:01:39.545Z,0.3
2023-03-12T05:03:32.601Z,0.3
2023-03-12T05:05:32.039Z,0.3
2023-03-12T05:07:32.293Z,0.3
2023-03-12T05:09:31.827Z,0.3
2023-03-12T05:11:32.301Z,0.3
2023-03-12T05:13:31.693Z,0.3
2023-03-12T05:15:32.469Z,0.3
2023-03-12T05:17:32.190Z,0.3
2023-03-12T05:19:32.292Z,0.3
2023-03-12T05:21:31.848Z,0.3
2023-03-12T05:23:32.434Z,0.3
2023-03-12T05:25:31.682Z,0.3
2023-03-12T05:27:32.398Z,0.3
2023-03-12T05:29:31.890Z,0.3
2023-03-12T05:31:32.412Z,4.41
2023-03-12T05:33:32.058Z,4.41
2023-03-12T05:35:32.427Z,4.41
2023-03-12T05:37:31.946Z,2.89
2023-03-12T05:39:32.263Z,2.89
2023-03-12T05:41:31.892Z,2.89
2023-03-12T05:43:32.276Z,2.89
2023-03-12T05:45:31.802Z,2.89
2023-03-12T05:47:32.963Z,2.89
2023-03-12T05:49:31.994Z,2.89
2023-03-12T05:51:31.669Z,2.89
2023-03-12T05:53:32.123Z,2.89
2023-03-12T05:55:31.634Z,2.89
2023-03-12T05:57:32.627Z,2.89
2023-03-12T05:59:32.095Z,2.89
2023-03-12T06:01:36.163Z,2.89
2023-03-12T06:03:32.612Z,2.89
2023-03-12T06:05:32.478Z,2.89
2023-03-12T06:07:32.345Z,2.89
2023-03-12T06:09:32.534Z,2.89
2023-03-12T06:11:31.695Z,2.89
2023-03-12T06:13:32.575Z,2.89
2023-03-12T06:15:32.118Z,2.89
2023-03-12T06:17:32.783Z,2.89
2023-03-12T06:19:31.786Z,2.89
2023-03-12T06:21:32.489Z,2.89
2023-03-12T06:23:32.977Z,2.89
2023-03-12T06:25:31.719Z,2.89
2023-03-12T06:27:31.947Z,2.89
2023-03-12T06:29:32.701Z,2.89
2023-03-12T06:31:32.038Z,2.89
2023-03-12T06:33:32.598Z,2.89
2023-03-12T06:35:32.078Z,2.89
2023-03-12T06:37:32.570Z,2.89
2023-03-12T06:39:31.760Z,2.89
2023-03-12T06:41:32.492Z,2.89
2023-03-12T06:43:32.083Z,9.25
2023-03-12T06:45:32.249Z,9.25
2023-03-12T06:47:32.380Z,9.25
2023-03-12T06:49:32.177Z,3.48
2023-03-12T06:51:31.838Z,3.48
2023-03-12T06:53:32.062Z,3.48
2023-03-12T06:55:31.408Z,3.48
2023-03-12T06:57:32.095Z,3.48
2023-03-12T06:59:31.676Z,3.48
2023-03-12T07:01:35.873Z,3.48
2023-03-12T07:03:31.867Z,3.48
2023-03-12T07:05:32.909Z,3.48
2023-03-12T07:07:31.753Z,3.48
2023-03-12T07:09:32.291Z,3.48
2023-03-12T07:11:35.057Z,3.48
2023-03-12T07:13:32.379Z,3.48
2023-03-12T07:15:31.965Z,3.48
2023-03-12T07:17:32.565Z,3.48
2023-03-12T07:19:31.965Z,3.48
2023-03-12T07:21:32.597Z,3.48
2023-03-12T07:23:31.736Z,3.48
2023-03-12T07:25:32.195Z,3.48
2023-03-12T07:27:31.759Z,3.48
2023-03-12T07:29:32.260Z,3.48
2023-03-12T07:31:31.741Z,3.48
2023-03-12T07:33:32.985Z,3.48
2023-03-12T07:35:32.881Z,3.48
2023-03-12T07:37:33.133Z,3.48
2023-03-12T07:39:32.046Z,3.48
2023-03-12T07:41:32.477Z,3.48
2023-03-12T07:43:33.327Z,3.48
2023-03-12T07:45:32.475Z,3.48
2023-03-12T07:47:47.596Z,3.48
2023-03-12T07:49:32.569Z,3.48
2023-03-12T07:51:31.901Z,3.48
2023-03-12T07:53:33.130Z,3.48
2023-03-12T07:55:32.607Z,8.23
2023-03-12T07:57:34.199Z,10.16
2023-03-12T07:59:33.121Z,10.16
2023-03-12T08:01:36.496Z,10.16
2023-03-12T08:03:34.609Z,10.16
2023-03-12T08:05:33.116Z,10.16
2023-03-12T08:07:32.955Z,10.16
2023-03-12T08:09:31.924Z,10.16
2023-03-12T08:11:32.750Z,10.16
2023-03-12T08:13:32.651Z,10.16
2023-03-12T08:15:32.873Z,10.16
2023-03-12T08:17:32.061Z,10.16
2023-03-12T08:19:33.061Z,10.16
2023-03-12T08:21:32.195Z,10.16
2023-03-12T08:23:31.644Z,10.16
2023-03-12T08:25:32.518Z,10.16
2023-03-12T08:27:31.724Z,10.16
2023-03-12T08:29:32.172Z,10.16
2023-03-12T08:31:31.937Z,10.16
2023-03-12T08:33:36.607Z,10.16
2023-03-12T08:35:32.023Z,10.16
2023-03-12T08:37:31.528Z,10.16
2023-03-12T08:39:31.989Z,10.16
2023-03-12T08:41:31.596Z,10.16
2023-03-12T08:43:32.208Z,10.16
2023-03-12T08:45:31.477Z,10.16
2023-03-12T08:47:32.204Z,10.16
2023-03-12T08:49:32.538Z,10.16
2023-03-12T08:51:31.779Z,10.16
2023-03-12T08:53:32.279Z,10.16
2023-03-12T08:55:31.925Z,10.16
2023-03-12T08:57:32.309Z,10.16
2023-03-12T08:59:31.665Z,10.16
2023-03-12T09:01:35.913Z,10.16
2023-03-12T09:03:32.287Z,13.85
2023-03-12T09:05:32.602Z,13.85
2023-03-12T09:07:31.546Z,13.85
2023-03-12T09:09:31.928Z,2160.52
2023-03-12T09:11:32.467Z,2160.52
2023-03-12T09:13:54.294Z,2160.52
2023-03-12T09:16:15.341Z,0.56
2023-03-12T09:17:32.694Z,0.56
2023-03-12T09:19:34.159Z,0.56
2023-03-12T09:21:31.595Z,0.26
2023-03-12T09:23:31.952Z,0.26
2023-03-12T09:25:31.741Z,0.26
2023-03-12T09:27:32.061Z,0.18
2023-03-12T09:29:37.981Z,0.18
2023-03-12T09:31:32.277Z,0.18
2023-03-12T09:33:36.111Z,151.46
2023-03-12T09:35:31.858Z,151.46
2023-03-12T09:37:35.652Z,151.46
2023-03-12T09:39:32.191Z,0.12
2023-03-12T09:41:32.571Z,0.12
2023-03-12T09:43:32.724Z,0.12
2023-03-12T09:45:32.084Z,0.12
2023-03-12T09:47:31.930Z,0.12
2023-03-12T09:49:32.974Z,0.12
2023-03-12T09:51:31.568Z,0.12
2023-03-12T09:53:31.958Z,0.12
2023-03-12T09:55:32.861Z,0.12
2023-03-12T09:57:32.376Z,0.1
2023-03-12T09:59:31.447Z,0.1
2023-03-12T10:01:38.362Z,0.1
2023-03-12T10:03:32.542Z,0.1
2023-03-12T10:05:54.833Z,0.1
2023-03-12T10:07:32.654Z,0.1
2023-03-12T10:09:53.682Z,0.09
2023-03-12T10:11:32.199Z,0.09
2023-03-12T10:13:32.745Z,0.09
2023-03-12T10:15:41.989Z,0.08
2023-03-12T10:17:32.706Z,0.08
2023-03-12T10:19:33.816Z,0.08
2023-03-12T10:21:32.296Z,80.59
2023-03-12T10:23:31.580Z,80.59
2023-03-12T10:25:33.164Z,80.59
2023-03-12T10:27:31.772Z,0.07
2023-03-12T10:29:32.150Z,0.07
2023-03-12T10:31:32.302Z,0.07
2023-03-12T10:33:32.701Z,58.71
2023-03-12T10:35:33.401Z,58.71
2023-03-12T10:37:32.229Z,58.71
2023-03-12T10:39:31.650Z,0.05
2023-03-12T10:41:34.747Z,0.05
2023-03-12T10:43:31.534Z,0.05
2023-03-12T10:45:32.142Z,56.56
2023-03-12T10:47:32.322Z,56.56
2023-03-12T10:49:32.319Z,56.56
2023-03-12T10:51:31.694Z,0.05
2023-03-12T10:53:32.593Z,0.05
2023-03-12T10:55:31.912Z,0.05
2023-03-12T10:57:31.657Z,60.92
2023-03-12T10:59:31.844Z,60.92
2023-03-12T11:01:39.262Z,60.92
2023-03-12T11:03:32.397Z,0.05
2023-03-12T11:05:32.424Z,0.05
2023-03-12T11:07:31.879Z,0.05
2023-03-12T11:09:49.962Z,0.05
2023-03-12T11:11:33.452Z,0.05
2023-03-12T11:13:31.392Z,0.05
2023-03-12T11:15:32.107Z,48.46
2023-03-12T11:17:31.980Z,48.46
2023-03-12T11:19:31.992Z,48.46
2023-03-12T11:21:32.316Z,0.04
2023-03-12T11:23:31.745Z,0.04
2023-03-12T11:25:32.167Z,0.04
2023-03-12T11:27:32.436Z,0.04
2023-03-12T11:29:31.951Z,0.04
2023-03-12T11:31:32.985Z,0.04
2023-03-12T11:33:32.043Z,41.16
2023-03-12T11:35:31.899Z,41.16
2023-03-12T11:37:32.299Z,41.16
2023-03-12T11:39:31.833Z,0.04
2023-03-12T11:41:32.452Z,0.04
2023-03-12T11:43:53.168Z,41.16
2023-03-12T11:45:32.423Z,0.04
2023-03-12T11:47:32.678Z,0.04
2023-03-12T11:49:32.637Z,0.04
2023-03-12T11:51:31.850Z,0.04
2023-03-12T11:53:32.519Z,0.04
2023-03-12T11:55:31.686Z,0.04
2023-03-12T11:57:32.008Z,0.04
2023-03-12T11:59:31.685Z,0.04
2023-03-12T12:01:33.228Z,0.04
2023-03-12T12:03:32.542Z,0.03
2023-03-12T12:05:31.986Z,0.03
2023-03-12T12:07:33.383Z,0.03
2023-03-12T12:09:32.057Z,34.63
2023-03-12T12:11:32.338Z,34.63
2023-03-12T12:13:35.742Z,34.63
2023-03-12T12:15:32.580Z,31.63
2023-03-12T12:17:32.716Z,31.63
2023-03-12T12:19:32.469Z,31.63
2023-03-12T12:21:31.905Z,0.03
2023-03-12T12:23:33.573Z,0.03
2023-03-12T12:25:33.054Z,0.03
2023-03-12T12:27:32.214Z,0.03
2023-03-12T12:29:31.769Z,0.03
2023-03-12T12:31:32.380Z,0.03
2023-03-12T12:33:32.142Z,26.14
2023-03-12T12:35:32.089Z,26.14
2023-03-12T12:37:32.810Z,26.14
2023-03-12T12:39:32.147Z,0.03
2023-03-12T12:41:31.614Z,0.03
2023-03-12T12:43:32.214Z,0.03
2023-03-12T12:45:31.717Z,24.88
2023-03-12T12:47:32.687Z,24.88
2023-03-12T12:49:32.071Z,24.88
2023-03-12T12:51:33.402Z,26.14
2023-03-12T12:53:31.864Z,26.14
2023-03-12T12:55:32.353Z,26.14
2023-03-12T12:57:34.394Z,0.02
2023-03-12T12:59:31.584Z,0.02
2023-03-12T13:01:39.163Z,0.02
2023-03-12T13:03:31.545Z,0.02
2023-03-12T13:05:32.221Z,0.02
2023-03-12T13:07:31.612Z,0.02
2023-03-12T13:09:31.953Z,21.32
2023-03-12T13:11:54.344Z,21.32
2023-03-12T13:13:31.732Z,21.32
2023-03-12T13:15:32.396Z,22.46
2023-03-12T13:17:32.184Z,22.46
2023-03-12T13:19:34.920Z,22.46
2023-03-12T13:21:32.374Z,0.02
2023-03-12T13:23:32.451Z,0.02
2023-03-12T13:25:31.718Z,0.02
2023-03-12T13:27:32.100Z,0.02
2023-03-12T13:29:46.444Z,0.02
2023-03-12T13:31:32.618Z,0.02
2023-03-12T13:33:32.006Z,0.02
2023-03-12T13:35:35.927Z,0.02
2023-03-12T13:37:32.216Z,0.02
2023-03-12T13:39:31.490Z,0.02
2023-03-12T13:41:32.068Z,0.02
2023-03-12T13:43:31.586Z,0.02
2023-03-12T13:45:32.000Z,17.1
2023-03-12T13:47:32.769Z,17.1
2023-03-12T13:49:31.839Z,17.1
2023-03-12T13:51:32.528Z,17.1
2023-03-12T13:53:32.030Z,17.1
2023-03-12T13:55:32.348Z,17.1
2023-03-12T13:57:31.705Z,0.01
2023-03-12T13:59:32.559Z,0.01
2023-03-12T14:01:37.043Z,0.01
2023-03-12T14:03:31.753Z,16.14
2023-03-12T14:05:32.688Z,16.14
2023-03-12T14:07:31.749Z,16.14
2023-03-12T14:09:32.052Z,0.02
2023-03-12T14:11:31.602Z,0.02
2023-03-12T14:13:32.578Z,0.02
2023-03-12T14:15:31.686Z,0.02
2023-03-12T14:17:32.421Z,0.02
2023-03-12T14:19:31.622Z,0.02
2023-03-12T14:21:32.406Z,16.14
2023-03-12T14:23:31.656Z,16.14
2023-03-12T14:25:31.946Z,16.14
2023-03-12T14:27:34.529Z,16.14
2023-03-12T14:29:32.299Z,16.14
2023-03-12T14:31:32.225Z,16.14
2023-03-12T14:33:35.141Z,0.02
2023-03-12T14:35:31.576Z,0.02
2023-03-12T14:37:32.196Z,0.02
2023-03-12T14:39:31.673Z,0.02
2023-03-12T14:41:32.148Z,0.02
2023-03-12T14:43:31.638Z,0.02
2023-03-12T14:45:31.993Z,16.14
2023-03-12T14:47:32.029Z,16.14
2023-03-12T14:49:32.085Z,16.14
2023-03-12T14:51:35.621Z,0.02
2023-03-12T14:53:31.961Z,0.02
2023-03-12T14:55:32.784Z,0.02
2023-03-12T14:57:31.951Z,15.21
2023-03-12T14:59:32.391Z,15.21
2023-03-12T15:01:35.380Z,15.21
2023-03-12T15:03:32.568Z,0.01
2023-03-12T15:05:32.398Z,0.01
2023-03-12T15:07:32.552Z,0.01
2023-03-12T15:09:31.422Z,0.01
2023-03-12T15:11:31.872Z,0.01
2023-03-12T15:13:32.467Z,0.01
2023-03-12T15:15:32.039Z,0.01
2023-03-12T15:17:34.420Z,0.01
2023-03-12T15:19:31.837Z,0.01
2023-03-12T15:21:31.740Z,0.01
2023-03-12T15:23:32.146Z,0.01
2023-03-12T15:25:31.682Z,0.01
2023-03-12T15:27:32.366Z,16.14
2023-03-12T15:29:32.215Z,16.14
2023-03-12T15:31:32.069Z,16.14
2023-03-12T15:33:33.543Z,17.1
2023-03-12T15:35:34.031Z,17.1
2023-03-12T15:37:32.838Z,17.1
2023-03-12T15:39:31.884Z,0.02
2023-03-12T15:41:34.608Z,0.02
2023-03-12T15:43:32.238Z,0.02
2023-03-12T15:45:31.709Z,19.14
2023-03-12T15:47:35.844Z,19.14
2023-03-12T15:49:31.690Z,19.14
2023-03-12T15:51:32.374Z,18.1
2023-03-12T15:53:31.610Z,18.1
2023-03-12T15:55:32.186Z,18.1
2023-03-12T15:57:31.701Z,0.02
2023-03-12T15:59:32.463Z,0.02
2023-03-12T16:01:36.193Z,0.02
2023-03-12T16:03:32.311Z,0.02
2023-03-12T16:05:32.440Z,0.02
2023-03-12T16:07:31.928Z,0.02
2023-03-12T16:09:32.168Z,0.02
2023-03-12T16:11:31.766Z,0.02
2023-03-12T16:13:32.371Z,0.02
2023-03-12T16:15:31.604Z,0.01
2023-03-12T16:17:32.633Z,0.01
2023-03-12T16:19:31.970Z,0.01
2023-03-12T16:21:32.247Z,0.01
2023-03-12T16:23:32.403Z,0.01
2023-03-12T16:25:34.644Z,0.01
2023-03-12T16:27:43.573Z,0.01
2023-03-12T16:29:32.044Z,0.01
2023-03-12T16:31:31.651Z,0.01
2023-03-12T16:33:32.698Z,0.01
2023-03-12T16:35:32.053Z,0.01
2023-03-12T16:37:33.025Z,0.01
2023-03-12T16:39:32.827Z,0.01
2023-03-12T16:41:42.129Z,0.01
2023-03-12T16:43:33.113Z,0.01
2023-03-12T16:45:31.942Z,17.1
2023-03-12T16:47:32.842Z,17.1
2023-03-12T16:49:32.468Z,17.1
2023-03-12T16:51:32.700Z,0.01
2023-03-12T16:53:31.875Z,0.01
2023-03-12T16:55:41.875Z,14.32
2023-03-12T16:57:31.942Z,14.32
2023-03-12T16:59:32.353Z,14.32
2023-03-12T17:01:36.151Z,14.32
2023-03-12T17:03:34.309Z,0.01
2023-03-12T17:05:32.747Z,0.01
2023-03-12T17:07:31.838Z,0.01
2023-03-12T17:09:32.679Z,14.32
2023-03-12T17:11:32.490Z,14.32
2023-03-12T17:13:33.720Z,14.32
2023-03-12T17:15:31.741Z,0.01
2023-03-12T17:17:32.371Z,0.01
2023-03-12T17:19:31.855Z,0.01
2023-03-12T17:21:31.997Z,11.84
2023-03-12T17:23:32.123Z,11.84
2023-03-12T17:25:31.579Z,11.84
2023-03-12T17:27:32.005Z,0.01
2023-03-12T17:29:32.267Z,0.01
2023-03-12T17:31:32.088Z,0.01
2023-03-12T17:33:32.536Z,11.84
2023-03-12T17:35:31.561Z,11.84
2023-03-12T17:37:31.941Z,11.84
2023-03-12T17:39:35.852Z,0.01
2023-03-12T17:41:48.873Z,0.01
2023-03-12T17:43:31.827Z,0.01
2023-03-12T17:45:34.307Z,10.36
2023-03-12T17:47:44.608Z,10.36
2023-03-12T17:49:32.447Z,10.36
2023-03-12T17:51:31.719Z,8.99
2023-03-12T17:53:32.345Z,8.99
2023-03-12T17:55:34.349Z,8.99
2023-03-12T17:57:32.146Z,8.35
2023-03-12T17:59:31.610Z,8.35
2023-03-12T18:01:36.121Z,8.35
2023-03-12T18:03:31.939Z,0.01
2023-03-12T18:05:32.585Z,0.01
2023-03-12T18:07:31.582Z,0.01
2023-03-12T18:09:32.059Z,0.01
2023-03-12T18:11:32.797Z,0.01
2023-03-12T18:13:31.926Z,0.01
2023-03-12T18:15:32.425Z,8.99
2023-03-12T18:17:32.380Z,8.99
2023-03-12T18:19:35.084Z,8.99
2023-03-12T18:21:45.700Z,0.01
2023-03-12T18:23:32.724Z,0.01
2023-03-12T18:25:44.013Z,0.01
2023-03-12T18:27:32.444Z,0.01
2023-03-12T18:29:31.600Z,0.01
2023-03-12T18:31:32.479Z,0.01
2023-03-12T18:33:31.990Z,0.01
2023-03-12T18:35:32.248Z,0.01
2023-03-12T18:37:31.564Z,0.01
2023-03-12T18:39:32.181Z,0.01
2023-03-12T18:41:31.701Z,0.01
2023-03-12T18:43:33.370Z,0.01
2023-03-12T18:45:32.309Z,0.01
2023-03-12T18:47:32.646Z,0.01
2023-03-12T18:49:32.252Z,0.01
2023-03-12T18:51:31.708Z,0.01
2023-03-12T18:53:32.174Z,0.01
2023-03-12T18:55:32.521Z,0.01
2023-03-12T18:57:32.063Z,0.01
2023-03-12T18:59:32.481Z,0.01
2023-03-12T19:01:36.079Z,0.01
2023-03-12T19:03:34.120Z,0.01
2023-03-12T19:05:32.252Z,0.01
2023-03-12T19:07:50.096Z,0.01
2023-03-12T19:09:31.718Z,0.01
2023-03-12T19:11:32.501Z,0.01
2023-03-12T19:13:45.462Z,0.01
2023-03-12T19:15:32.279Z,0.01
2023-03-12T19:17:32.747Z,0.01
2023-03-12T19:19:31.958Z,0.01
2023-03-12T19:21:34.033Z,0.01
2023-03-12T19:23:31.870Z,0.01
2023-03-12T19:25:32.448Z,0.01
2023-03-12T19:27:32.114Z,1.04
2023-03-12T19:29:31.354Z,1.04
2023-03-12T19:31:32.450Z,1.04
2023-03-12T19:33:41.654Z,306.61
2023-03-12T19:35:31.987Z,306.61
2023-03-12T19:37:32.378Z,306.61
2023-03-12T19:39:43.562Z,306.61
2023-03-12T19:41:32.600Z,306.61
2023-03-12T19:43:31.610Z,306.61
2023-03-12T19:45:32.229Z,306.61
2023-03-12T19:47:31.979Z,306.61
2023-03-12T19:49:32.178Z,306.61
2023-03-12T19:51:31.911Z,306.61
2023-03-12T19:53:32.248Z,306.61
2023-03-12T19:55:48.209Z,306.61
2023-03-12T19:57:32.085Z,306.61
2023-03-12T19:59:31.597Z,306.61
2023-03-12T20:01:35.981Z,306.61
2023-03-12T20:03:33.375Z,306.61
2023-03-12T20:05:32.430Z,306.61
2023-03-12T20:07:31.607Z,306.61
2023-03-12T20:09:31.982Z,306.61
2023-03-12T20:11:31.735Z,306.61
2023-03-12T20:13:32.065Z,306.61
2023-03-12T20:15:31.575Z,306.61
2023-03-12T20:17:32.770Z,306.61
2023-03-12T20:19:31.916Z,306.61
2023-03-12T20:21:32.080Z,306.61
2023-03-12T20:23:31.549Z,306.61
2023-03-12T20:25:31.932Z,306.61
2023-03-12T20:27:32.404Z,306.61
2023-03-12T20:29:31.783Z,306.61
2023-03-12T20:31:32.617Z,306.61
2023-03-12T20:33:32.662Z,306.61
2023-03-12T20:35:32.436Z,306.61
2023-03-12T20:37:31.750Z,306.61
2023-03-12T20:39:32.122Z,1860.88
2023-03-12T20:41:31.615Z,2948.71
2023-03-12T20:43:31.998Z,2948.71
2023-03-12T20:45:32.305Z,1.07
2023-03-12T20:47:32.370Z,954.05
2023-03-12T20:49:32.463Z,954.05
2023-03-12T20:51:31.823Z,954.05
2023-03-12T20:53:32.125Z,954.05
2023-03-12T20:55:31.793Z,954.05
2023-03-12T20:57:32.370Z,954.05
2023-03-12T20:59:31.727Z,954.05
2023-03-12T21:01:36.288Z,954.05
2023-03-12T21:03:32.188Z,954.05
2023-03-12T21:05:36.178Z,954.05
2023-03-12T21:07:31.741Z,954.05
2023-03-12T21:09:32.072Z,954.05
2023-03-12T21:11:31.780Z,954.05
2023-03-12T21:13:32.069Z,954.05
2023-03-12T21:15:31.544Z,954.05
2023-03-12T21:17:32.823Z,954.05
2023-03-12T21:19:32.370Z,954.05
2023-03-12T21:21:31.973Z,954.05
2023-03-12T21:23:32.673Z,954.05
2023-03-12T21:25:31.903Z,954.05
2023-03-12T21:27:44.596Z,954.05
2023-03-12T21:29:31.668Z,954.05
2023-03-12T21:31:32.937Z,954.05
2023-03-12T21:33:32.524Z,954.05
2023-03-12T21:35:31.834Z,954.05
2023-03-12T21:37:32.421Z,954.05
2023-03-12T21:39:31.783Z,954.05
2023-03-12T21:41:32.411Z,954.05
2023-03-12T21:43:31.995Z,954.05
2023-03-12T21:45:35.018Z,954.05
2023-03-12T21:47:32.592Z,954.05
2023-03-12T21:49:32.387Z,954.05
2023-03-12T21:51:32.036Z,954.05
2023-03-12T21:53:46.229Z,954.05
2023-03-12T21:55:32.167Z,954.05
2023-03-12T21:57:31.759Z,954.05
2023-03-12T21:59:32.125Z,954.05
2023-03-12T22:01:36.065Z,954.05
2023-03-12T22:03:35.194Z,954.05
2023-03-12T22:05:32.105Z,954.05
2023-03-12T22:07:32.187Z,954.05
2023-03-12T22:09:31.818Z,954.05
2023-03-12T22:11:32.408Z,954.05
2023-03-12T22:13:31.836Z,954.05
2023-03-12T22:15:32.301Z,954.05
2023-03-12T22:17:32.307Z,954.05
2023-03-12T22:19:32.229Z,954.05
2023-03-12T22:21:31.725Z,954.05
2023-03-12T22:23:32.089Z,954.05
2023-03-12T22:25:31.937Z,954.05
2023-03-12T22:27:32.186Z,954.05
2023-03-12T22:29:33.549Z,954.05
2023-03-12T22:31:33.041Z,954.05
2023-03-12T22:33:32.496Z,954.05
2023-03-12T22:35:31.355Z,954.05
2023-03-12T22:37:32.028Z,954.05
2023-03-12T22:39:31.977Z,954.05
2023-03-12T22:41:32.364Z,954.05
2023-03-12T22:43:31.737Z,954.05
2023-03-12T22:45:32.133Z,954.05
2023-03-12T22:47:32.350Z,954.05
2023-03-12T22:49:32.228Z,954.05
2023-03-12T22:51:31.799Z,954.05
2023-03-12T22:53:32.331Z,954.05
2023-03-12T22:55:31.915Z,954.05
2023-03-12T22:57:32.373Z,954.05
2023-03-12T22:59:31.724Z,954.05
2023-03-12T23:01:33.926Z,954.05
2023-03-12T23:03:32.084Z,954.05
2023-03-12T23:05:32.980Z,954.05
2023-03-12T23:07:47.388Z,954.05
2023-03-12T23:09:33.198Z,954.05
2023-03-12T23:11:32.496Z,954.05
2023-03-12T23:13:31.760Z,954.05
2023-03-12T23:15:40.892Z,954.05
2023-03-12T23:17:32.514Z,954.05
2023-03-12T23:19:32.396Z,954.05
2023-03-12T23:21:31.748Z,954.05
2023-03-12T23:23:32.235Z,954.05
2023-03-12T23:25:31.904Z,954.05
2023-03-12T23:27:32.362Z,954.05
2023-03-12T23:29:31.667Z,954.05
2023-03-12T23:31:32.118Z,954.05
2023-03-12T23:33:33.355Z,954.05
2023-03-12T23:35:32.236Z,954.05
2023-03-12T23:37:32.172Z,954.05
2023-03-12T23:39:45.033Z,954.05
2023-03-12T23:41:32.086Z,954.05
2023-03-12T23:43:31.679Z,954.05
2023-03-12T23:45:32.227Z,954.05
2023-03-12T23:47:32.397Z,954.05
2023-03-12T23:49:32.308Z,954.05
2023-03-12T23:51:31.934Z,954.05
2023-03-12T23:53:32.694Z,954.05
2023-03-12T23:55:31.905Z,954.05
2023-03-12T23:57:32.402Z,954.05
2023-03-12T23:59:31.994Z,954.05
